Time;durP1;ratioP1;P1;durP2;ratioP2;P2;SDS_P1;SDS_P2;PMS_P1;PMS_P2;Temp;Humidity;BMP_temperature;BMP_pressure;BME280_temperature;BME280_humidity;BME280_pressure;Samples;Min_cycle;Max_cycle;Signal;HPM_P1;HPM_P2
2022/03/03 00:00:11;;;;;;;25.55;14.60;;;;;;;5.90;43.75;94934.97;4952438;29;20192;-74
2022/03/03 00:02:38;;;;;;;21.27;11.60;;;;;;;4.94;45.16;94957.72;4952842;29;20878;-70
2022/03/03 00:05:07;;;;;;;23.00;13.63;;;;;;;4.96;44.94;94947.91;4951711;29;20223;-69
2022/03/03 00:07:34;;;;;;;22.08;14.70;;;;;;;5.35;45.10;94937.97;4952553;29;20203;-76
2022/03/03 00:10:04;;;;;;;23.70;15.18;;;;;;;5.86;43.95;94928.63;4952489;28;20188;-72
2022/03/03 00:12:31;;;;;;;26.90;15.48;;;;;;;5.90;43.71;94944.56;4951369;29;20691;-73
2022/03/03 00:14:58;;;;;;;23.48;15.57;;;;;;;5.81;43.62;94943.28;4952933;29;20310;-74
2022/03/03 00:17:25;;;;;;;23.35;14.82;;;;;;;5.64;43.76;94937.19;4952489;29;20679;-71
2022/03/03 00:19:55;;;;;;;24.17;15.60;;;;;;;5.76;43.68;94911.97;4952497;29;20667;-75
2022/03/03 00:22:22;;;;;;;22.15;14.48;;;;;;;6.09;43.21;94930.47;4953902;29;20207;-70
2022/03/03 00:24:49;;;;;;;22.13;15.15;;;;;;;6.34;42.79;94928.41;4951857;29;20202;-71
2022/03/03 00:27:16;;;;;;;22.33;15.00;;;;;;;5.63;43.59;94917.38;4952137;29;20184;-74
2022/03/03 00:29:43;;;;;;;23.77;15.52;;;;;;;5.83;43.64;94904.88;4952364;29;20207;-73
2022/03/03 00:32:10;;;;;;;25.42;15.82;;;;;;;5.99;43.36;94893.81;4950805;29;20659;-74
2022/03/03 00:34:37;;;;;;;21.55;14.50;;;;;;;5.99;43.10;94925.00;4951027;29;20192;-72
2022/03/03 00:37:04;;;;;;;24.70;15.30;;;;;;;5.89;43.50;94930.00;4952270;29;20539;-75
2022/03/03 00:39:31;;;;;;;24.63;14.75;;;;;;;5.74;43.97;94924.41;4951717;29;20268;-75
2022/03/03 00:41:57;;;;;;;17.40;11.68;;;;;;;5.32;44.50;94918.44;4952082;29;20222;-71
2022/03/03 00:44:24;;;;;;;22.80;14.80;;;;;;;5.92;43.59;94932.13;4952996;29;20679;-71
2022/03/03 00:46:51;;;;;;;20.55;15.00;;;;;;;5.91;43.08;94913.13;4951884;29;20620;-73
2022/03/03 00:49:18;;;;;;;24.55;15.15;;;;;;;6.51;42.36;94924.09;4952265;29;20364;-70
2022/03/03 00:51:45;;;;;;;21.05;14.10;;;;;;;6.16;42.95;94928.53;4952302;29;20211;-76
2022/03/03 00:54:12;;;;;;;22.60;14.15;;;;;;;6.38;42.68;94923.53;4951833;29;20250;-74
2022/03/03 00:56:39;;;;;;;24.00;15.85;;;;;;;6.12;43.25;94915.19;4951637;29;20200;-72
2022/03/03 00:59:07;;;;;;;24.52;15.27;;;;;;;6.11;43.48;94925.81;4951511;29;20282;-77
2022/03/03 01:01:34;;;;;;;23.88;15.43;;;;;;;6.17;42.94;94911.88;4951440;29;20200;-72
2022/03/03 01:04:01;;;;;;;25.17;15.68;;;;;;;6.32;42.64;94914.81;4951448;29;20199;-71
2022/03/03 01:06:28;;;;;;;22.92;15.65;;;;;;;6.48;42.70;94911.50;4952190;29;20235;-70
2022/03/03 01:08:55;;;;;;;24.20;15.77;;;;;;;6.37;42.66;94912.31;4952333;29;20211;-69
2022/03/03 01:11:22;;;;;;;25.23;15.80;;;;;;;6.54;42.67;94921.00;4951720;29;20225;-71
2022/03/03 01:13:49;;;;;;;21.70;15.07;;;;;;;6.43;42.54;94910.63;4951667;29;20207;-71
2022/03/03 01:16:15;;;;;;;23.45;15.25;;;;;;;6.26;42.89;94923.53;4951649;29;20236;-66
2022/03/03 01:18:42;;;;;;;22.73;15.60;;;;;;;6.68;42.40;94913.75;4951844;29;20223;-67
2022/03/03 01:21:09;;;;;;;22.90;15.70;;;;;;;5.77;43.50;94910.94;4953619;28;20195;-73
2022/03/03 01:23:36;;;;;;;43.38;25.50;;;;;;;5.99;43.52;94914.59;4955592;29;20195;-72
2022/03/03 01:26:04;;;;;;;25.63;16.52;;;;;;;6.69;42.54;94905.72;4955530;29;20255;-73
2022/03/03 01:28:31;;;;;;;21.98;14.98;;;;;;;5.70;44.13;94911.06;4955217;29;20650;-69
2022/03/03 01:30:58;;;;;;;24.35;15.07;;;;;;;5.87;44.09;94906.81;4955417;29;20641;-73
2022/03/03 01:33:24;;;;;;;25.50;15.23;;;;;;;5.33;44.85;94901.84;4955748;29;20196;-68
2022/03/03 01:35:51;;;;;;;23.13;14.63;;;;;;;5.35;45.25;94906.81;4955314;29;20252;-68
2022/03/03 01:38:18;;;;;;;27.35;15.73;;;;;;;5.59;44.42;94913.63;4955014;29;20675;-67
2022/03/03 01:40:45;;;;;;;25.10;14.70;;;;;;;5.31;45.07;94906.47;4954738;29;20560;-69
2022/03/03 01:43:12;;;;;;;23.13;15.80;;;;;;;5.80;44.49;94900.13;4955394;29;20227;-68
2022/03/03 01:45:39;;;;;;;28.77;16.92;;;;;;;5.65;44.86;94903.16;4955599;29;20302;-69
2022/03/03 01:48:06;;;;;;;27.45;17.42;;;;;;;5.59;44.70;94892.84;4955099;29;20226;-71
2022/03/03 01:50:33;;;;;;;24.05;16.90;;;;;;;6.14;43.76;94886.34;4954444;29;20266;-68
2022/03/03 01:53:00;;;;;;;27.08;16.90;;;;;;;5.23;45.41;94904.19;4954401;29;20200;-73
2022/03/03 01:55:27;;;;;;;24.33;15.60;;;;;;;5.42;45.21;94897.91;4954749;29;20204;-70
2022/03/03 01:57:57;;;;;;;31.02;17.73;;;;;;;5.39;45.05;94877.56;4955250;29;20286;-70
2022/03/03 02:00:23;;;;;;;27.45;16.52;;;;;;;5.33;45.61;94888.06;4955203;29;20196;-73
2022/03/03 02:02:50;;;;;;;26.48;16.77;;;;;;;6.04;44.44;94876.50;4954867;29;20304;-72
2022/03/03 02:05:17;;;;;;;25.80;16.60;;;;;;;5.92;44.14;94877.53;4954925;29;20194;-75
2022/03/03 02:07:44;;;;;;;29.60;17.77;;;;;;;5.49;45.04;94877.81;4954731;29;20263;-73
2022/03/03 02:10:11;;;;;;;28.42;17.85;;;;;;;6.33;43.79;94885.19;4955386;29;20200;-70
2022/03/03 02:12:38;;;;;;;27.40;17.40;;;;;;;5.86;44.85;94884.41;4954779;29;20220;-70
2022/03/03 02:15:06;;;;;;;25.75;17.30;;;;;;;5.91;44.48;94886.34;4956976;29;20219;-69
2022/03/03 02:17:33;;;;;;;29.73;18.33;;;;;;;6.15;44.43;94880.91;4955273;29;20651;-76
2022/03/03 02:20:16;;;;;;;25.20;17.17;;;;;;;6.11;44.70;94881.59;4954593;29;20584;-74
2022/03/03 02:22:43;;;;;;;27.13;17.65;;;;;;;6.43;43.46;94890.59;4955552;29;20219;-70
2022/03/03 02:25:10;;;;;;;29.85;18.27;;;;;;;6.63;43.66;94887.59;4954354;29;20274;-66
2022/03/03 02:27:37;;;;;;;28.05;17.90;;;;;;;5.99;44.49;94893.81;4954521;29;20184;-70
2022/03/03 02:30:04;;;;;;;27.92;18.05;;;;;;;6.45;43.92;94885.94;4954140;29;20266;-69
2022/03/03 02:32:32;;;;;;;22.75;15.75;;;;;;;5.91;43.82;94875.97;4952990;28;20212;-71
2022/03/03 02:34:58;;;;;;;26.40;18.08;;;;;;;6.17;43.95;94885.88;4953745;29;20200;-72
2022/03/03 02:37:32;;;;;;;29.20;18.30;;;;;;;6.81;43.33;94884.81;4953339;29;20675;-76
2022/03/03 02:39:59;;;;;;;25.17;16.55;;;;;;;6.72;42.84;94884.41;4953692;29;20192;-73
2022/03/03 02:42:26;;;;;;;27.88;17.83;;;;;;;6.73;42.79;94885.97;4954521;29;20200;-73
2022/03/03 02:44:52;;;;;;;27.58;17.10;;;;;;;5.94;44.71;94886.69;4953761;29;20687;-68
2022/03/03 02:47:19;;;;;;;27.58;18.13;;;;;;;6.47;43.89;94886.53;4952751;29;20246;-73
2022/03/03 02:49:46;;;;;;;26.95;17.60;;;;;;;6.59;43.58;94895.06;4953954;29;20196;-73
2022/03/03 02:52:13;;;;;;;25.48;17.80;;;;;;;5.96;45.01;94891.66;4953859;29;20262;-69
2022/03/03 02:54:40;;;;;;;28.08;17.25;;;;;;;5.67;45.30;94890.72;4953575;29;20196;-66
2022/03/03 02:59:53;;;;;;;29.13;14.07;;;;;;;5.34;46.26;94885.25;4953624;29;20238;-78
2022/03/03 03:02:20;;;;;;;27.25;17.77;;;;;;;5.52;46.35;94885.16;4954086;29;20204;-69
2022/03/03 03:04:47;;;;;;;32.28;19.05;;;;;;;6.26;44.74;94879.31;4952992;29;20196;-71
2022/03/03 03:07:14;;;;;;;30.40;17.70;;;;;;;6.02;45.23;94888.16;4953057;29;20318;-73
2022/03/03 03:09:41;;;;;;;26.50;17.83;;;;;;;6.29;44.82;94889.28;4935977;29;20203;-72
2022/03/03 03:12:08;;;;;;;27.90;17.10;;;;;;;5.75;45.83;94886.97;4953859;29;20195;-76
2022/03/03 03:14:35;;;;;;;28.13;18.73;;;;;;;5.72;46.11;94890.84;4952942;29;20271;-74
2022/03/03 03:17:02;;;;;;;29.13;17.83;;;;;;;5.08;46.99;94880.44;4953103;29;20207;-68
2022/03/03 03:19:29;;;;;;;30.05;19.65;;;;;;;5.82;46.15;94888.47;4953851;29;20295;-73
2022/03/03 03:21:56;;;;;;;30.25;18.20;;;;;;;6.04;45.43;94886.09;4953636;29;20196;-70
2022/03/03 03:24:23;;;;;;;27.23;15.80;;;;;;;5.73;46.01;94889.81;4952803;29;20206;-70
2022/03/03 03:26:49;;;;;;;30.42;17.95;;;;;;;6.10;45.35;94890.41;4953170;29;20231;-70
2022/03/03 03:29:17;;;;;;;27.38;18.02;;;;;;;5.47;47.08;94873.84;4952639;29;20208;-72
2022/03/03 03:31:43;;;;;;;26.27;18.08;;;;;;;5.83;46.02;94884.09;4953151;29;20196;-70
2022/03/03 03:34:10;;;;;;;27.15;17.83;;;;;;;6.04;45.63;94880.91;4953304;29;20667;-72
2022/03/03 03:36:38;;;;;;;28.73;18.17;;;;;;;5.99;45.50;94862.59;4952987;29;20259;-74
2022/03/03 03:39:05;;;;;;;24.00;16.02;;;;;;;5.57;46.61;94894.88;4953106;29;20667;-76
2022/03/03 03:41:32;;;;;;;29.50;17.52;;;;;;;5.93;45.71;94894.72;4953343;29;20548;-76
2022/03/03 03:43:59;;;;;;;31.75;18.13;;;;;;;6.03;45.58;94867.13;4952485;28;20212;-71
2022/03/03 03:46:26;;;;;;;28.83;17.67;;;;;;;5.93;45.66;94884.31;4953135;29;20242;-72
2022/03/03 03:48:53;;;;;;;29.40;18.67;;;;;;;6.32;44.98;94882.78;4953020;29;20858;-68
2022/03/03 03:51:20;;;;;;;28.35;18.15;;;;;;;5.98;45.76;94882.63;4953954;29;20608;-77
2022/03/03 03:53:47;;;;;;;33.25;18.00;;;;;;;6.47;44.50;94878.72;4953306;29;20747;-76
2022/03/03 03:56:14;;;;;;;29.00;17.10;;;;;;;5.84;45.44;94870.84;4953459;29;20192;-69
2022/03/03 03:58:40;;;;;;;27.60;17.65;;;;;;;6.00;45.14;94890.19;4953064;29;20200;-73
2022/03/03 04:01:07;;;;;;;26.83;18.25;;;;;;;6.11;45.51;94887.56;4952789;29;20199;-77
2022/03/03 04:03:34;;;;;;;28.40;16.35;;;;;;;6.20;45.04;94890.63;4952439;29;20234;-69
2022/03/03 04:06:01;;;;;;;25.80;16.17;;;;;;;5.93;45.73;94884.31;4952998;29;20211;-73
2022/03/03 04:08:28;;;;;;;27.63;18.27;;;;;;;6.06;45.49;94869.25;4953574;29;20274;-71
2022/03/03 04:10:55;;;;;;;34.08;20.13;;;;;;;6.25;45.12;94869.94;4953776;29;20192;-72
2022/03/03 04:13:22;;;;;;;27.98;17.20;;;;;;;5.96;45.76;94863.06;4951921;29;20654;-70
2022/03/03 04:15:49;;;;;;;25.85;16.42;;;;;;;5.67;45.81;94866.53;4951698;29;20613;-73
2022/03/03 04:18:16;;;;;;;28.73;17.17;;;;;;;5.07;47.49;94863.28;4952281;29;20206;-75
2022/03/03 04:20:44;;;;;;;29.38;17.88;;;;;;;6.35;46.30;94883.13;4951654;29;20662;-72
2022/03/03 04:23:11;;;;;;;28.90;17.17;;;;;;;6.44;45.06;94892.16;4952661;29;20227;-66
2022/03/03 04:25:38;;;;;;;28.17;18.35;;;;;;;6.25;45.26;94876.94;4951543;29;20500;-68
2022/03/03 04:28:05;;;;;;;27.17;17.52;;;;;;;6.25;44.81;94877.72;4952233;29;20192;-73
2022/03/03 04:30:32;;;;;;;27.77;18.25;;;;;;;6.62;44.45;94879.00;4951721;29;20207;-68
2022/03/03 04:32:59;;;;;;;29.02;17.52;;;;;;;6.12;44.82;94862.34;4951898;29;20208;-73
2022/03/03 04:35:25;;;;;;;29.85;18.33;;;;;;;6.56;44.53;94853.91;4951441;29;20203;-68
2022/03/03 04:37:52;;;;;;;32.40;18.38;;;;;;;6.04;45.09;94870.50;4934569;29;20212;-69
2022/03/03 04:40:20;;;;;;;27.05;17.73;;;;;;;6.62;44.12;94863.41;4952100;29;20716;-66
2022/03/03 04:42:47;;;;;;;27.90;18.65;;;;;;;6.65;44.15;94868.13;4951933;29;20206;-76
2022/03/03 04:45:13;;;;;;;29.65;18.20;;;;;;;6.70;43.75;94863.00;4951857;29;20284;-71
2022/03/03 04:47:40;;;;;;;30.48;18.55;;;;;;;5.71;45.69;94860.66;4951178;29;20765;-70
2022/03/03 04:50:09;;;;;;;32.17;17.63;;;;;;;5.30;46.62;94868.53;4951632;29;20199;-70
2022/03/03 04:52:36;;;;;;;28.35;16.70;;;;;;;5.90;45.80;94874.34;4951155;29;20697;-73
2022/03/03 04:55:05;;;;;;;28.63;17.58;;;;;;;5.83;45.32;94868.50;4950253;28;20227;-69
2022/03/03 04:57:33;;;;;;;27.40;16.90;;;;;;;6.06;44.99;94863.25;4951030;29;20200;-69
2022/03/03 05:00:00;;;;;;;27.05;16.25;;;;;;;6.06;44.62;94864.06;4951816;29;20208;-70
2022/03/03 05:02:28;;;;;;;30.20;18.60;;;;;;;6.34;44.71;94868.56;4950946;28;20211;-73
2022/03/03 05:04:55;;;;;;;27.38;16.08;;;;;;;6.25;44.62;94856.91;4952888;29;20370;-69
2022/03/03 05:07:22;;;;;;;28.45;17.83;;;;;;;5.92;45.70;94869.72;4953113;29;20244;-67
2022/03/03 05:09:50;;;;;;;30.70;17.70;;;;;;;6.33;44.94;94864.38;4955071;29;20191;-69
2022/03/03 05:12:17;;;;;;;29.02;16.40;;;;;;;6.11;44.85;94871.19;4953040;29;20208;-75
2022/03/03 05:14:43;;;;;;;26.35;17.05;;;;;;;6.63;44.31;94854.56;4934641;29;20316;-71
2022/03/03 05:17:11;;;;;;;28.15;17.00;;;;;;;5.88;45.65;94866.00;4952173;29;20204;-69
2022/03/03 05:19:37;;;;;;;28.13;17.73;;;;;;;5.30;46.86;94855.53;4950887;29;20196;-71
2022/03/03 05:22:04;;;;;;;29.42;16.33;;;;;;;5.89;45.42;94859.78;4951248;29;20218;-67
2022/03/03 05:24:31;;;;;;;25.75;17.08;;;;;;;5.78;45.75;94866.56;4950979;29;20203;-71
2022/03/03 05:26:59;;;;;;;29.45;17.95;;;;;;;6.01;45.37;94870.97;4951307;29;20270;-71
2022/03/03 05:29:27;;;;;;;25.38;16.00;;;;;;;5.97;45.26;94880.22;4951316;29;20660;-68
2022/03/03 05:31:57;;;;;;;26.50;16.52;;;;;;;6.07;45.02;94872.66;4951694;29;20759;-72
2022/03/03 05:34:26;;;;;;;31.73;17.00;;;;;;;6.24;44.40;94865.72;4951601;29;20602;-77
2022/03/03 05:36:54;;;;;;;28.42;17.45;;;;;;;5.89;45.37;94885.78;4951877;29;20200;-68
2022/03/03 05:39:23;;;;;;;26.70;16.65;;;;;;;5.55;46.11;94865.72;4951257;29;20224;-69
2022/03/03 05:41:53;;;;;;;24.75;16.00;;;;;;;5.86;45.77;94873.22;4951464;29;20347;-69
2022/03/03 05:44:21;;;;;;;27.45;16.27;;;;;;;5.64;46.28;94880.75;4951246;29;20210;-71
2022/03/03 05:46:49;;;;;;;30.25;17.33;;;;;;;6.07;45.49;94868.25;4951451;29;20619;-70
2022/03/03 05:49:19;;;;;;;29.88;18.38;;;;;;;6.11;45.47;94871.97;4951772;29;20286;-69
2022/03/03 05:51:46;;;;;;;27.08;17.25;;;;;;;5.87;45.51;94880.03;4951816;29;20287;-69
2022/03/03 05:54:13;;;;;;;26.42;15.82;;;;;;;6.00;45.12;94864.19;4951251;29;20695;-75
2022/03/03 05:56:45;;;;;;;25.45;15.57;;;;;;;5.53;45.66;94867.78;4951649;29;20204;-70
2022/03/03 05:59:14;;;;;;;27.58;16.90;;;;;;;6.11;45.11;94871.19;4951963;29;20196;-74
2022/03/03 06:01:42;;;;;;;26.88;16.33;;;;;;;5.58;45.44;94875.69;4953529;29;20203;-67
2022/03/03 06:04:13;;;;;;;26.05;15.68;;;;;;;5.47;45.39;94884.25;4953705;29;20283;-69
2022/03/03 06:06:48;;;;;;;26.23;16.27;;;;;;;6.26;44.74;94884.50;4953105;28;20220;-72
2022/03/03 06:09:15;;;;;;;28.23;16.42;;;;;;;6.18;44.55;94865.88;4954317;29;20563;-74
2022/03/03 06:11:47;;;;;;;27.83;16.83;;;;;;;6.27;44.01;94882.69;4954098;29;20192;-71
2022/03/03 06:14:21;;;;;;;29.08;17.00;;;;;;;6.21;44.15;94876.59;4954110;29;20208;-73
2022/03/03 06:16:49;;;;;;;26.05;15.82;;;;;;;6.75;43.12;94868.31;4954214;29;20211;-71
2022/03/03 06:19:19;;;;;;;28.13;16.38;;;;;;;6.53;43.43;94879.59;4954402;29;20203;-69
2022/03/03 06:21:46;;;;;;;26.70;15.15;;;;;;;5.64;44.38;94874.78;4937227;29;20196;-69
2022/03/03 06:24:13;;;;;;;31.30;16.52;;;;;;;6.24;43.87;94875.38;4954319;29;20197;-70
2022/03/03 06:26:40;;;;;;;27.58;16.77;;;;;;;6.69;42.96;94871.84;4954224;29;20275;-74
2022/03/03 06:29:07;;;;;;;29.83;16.77;;;;;;;6.02;43.73;94872.56;4954029;29;20188;-73
2022/03/03 06:31:34;;;;;;;28.67;16.40;;;;;;;6.33;43.09;94874.00;4954581;29;20214;-74
2022/03/03 06:34:01;;;;;;;26.77;16.60;;;;;;;6.19;43.58;94873.44;4954059;29;20667;-69
2022/03/03 06:36:28;;;;;;;25.30;13.77;;;;;;;5.57;44.22;94874.88;4954270;29;20204;-69
2022/03/03 06:38:54;;;;;;;30.10;16.67;;;;;;;6.43;42.88;94869.78;4954404;29;20195;-73
2022/03/03 06:41:23;;;;;;;29.50;16.90;;;;;;;6.14;42.91;94868.94;4954485;29;20599;-68
2022/03/03 06:43:50;;;;;;;37.28;16.67;;;;;;;6.20;43.43;94880.22;4953230;29;20679;-73
2022/03/03 06:46:18;;;;;;;32.05;16.75;;;;;;;6.64;42.21;94873.56;4953873;29;20694;-69
2022/03/03 06:48:45;;;;;;;30.65;16.65;;;;;;;6.70;42.07;94878.63;4954152;29;20278;-75
2022/03/03 06:51:17;;;;;;;29.85;17.55;;;;;;;6.76;41.96;94869.09;4954111;29;20208;-70
2022/03/03 06:53:45;;;;;;;26.02;16.83;;;;;;;6.91;41.89;94872.81;4953771;29;20211;-67
2022/03/03 06:56:12;;;;;;;29.13;17.50;;;;;;;6.82;41.42;94884.63;4953608;29;20203;-73
2022/03/03 06:58:40;;;;;;;23.33;15.35;;;;;;;6.87;41.36;94879.50;4954010;29;20193;-76
2022/03/03 07:01:09;;;;;;;26.08;16.08;;;;;;;6.76;40.83;94876.91;4953823;29;20199;-71
2022/03/03 07:03:37;;;;;;;29.20;16.40;;;;;;;6.55;41.43;94882.78;4954189;29;20212;-75
2022/03/03 07:06:04;;;;;;;28.52;17.42;;;;;;;6.33;41.74;94890.41;4936934;29;20203;-72
2022/03/03 07:08:32;;;;;;;25.75;14.48;;;;;;;6.23;42.16;94887.56;4953006;29;20232;-71
2022/03/03 07:11:00;;;;;;;28.45;15.85;;;;;;;6.44;41.24;94886.97;4953603;29;20207;-70
2022/03/03 07:13:27;;;;;;;25.70;15.48;;;;;;;6.82;40.96;94889.81;4953555;29;20270;-72
2022/03/03 07:16:21;;;;;;;26.70;15.73;;;;;;;6.27;41.61;94886.09;4953034;29;20294;-68
2022/03/03 07:18:51;;;;;;;24.10;12.80;;;;;;;5.77;42.94;94887.53;4952484;28;20187;-71
2022/03/03 07:21:43;;;;;;;29.85;16.08;;;;;;;6.64;41.42;94886.59;4954151;29;20227;-65
2022/03/03 07:24:21;;;;;;;29.23;14.73;;;;;;;5.94;41.45;94897.09;4953584;29;20223;-71
2022/03/03 07:26:55;;;;;;;31.13;16.55;;;;;;;6.18;42.26;94878.88;4953695;29;20243;-70
2022/03/03 07:29:25;;;;;;;25.80;15.35;;;;;;;6.61;40.87;94885.22;4936434;29;20212;-71
2022/03/03 07:31:58;;;;;;;28.30;15.43;;;;;;;7.05;40.76;94879.31;4953521;29;20251;-69
2022/03/03 07:34:36;;;;;;;32.00;17.77;;;;;;;7.10;40.07;94860.34;4952599;29;20218;-70
2022/03/03 07:37:07;;;;;;;26.42;14.93;;;;;;;6.86;39.82;94875.28;4953203;29;20710;-65
2022/03/03 07:39:44;;;;;;;30.05;16.90;;;;;;;6.85;40.60;94884.13;4952437;29;20679;-74
2022/03/03 07:42:12;;;;;;;27.40;16.58;;;;;;;7.06;39.93;94869.69;4951738;29;20191;-71
2022/03/03 07:44:40;;;;;;;26.95;16.90;;;;;;;6.88;40.44;94870.66;4953104;29;20199;-70
2022/03/03 07:47:08;;;;;;;31.98;17.23;;;;;;;7.17;39.59;94861.78;4953587;29;20212;-77
2022/03/03 07:49:36;;;;;;;25.45;15.43;;;;;;;7.38;39.32;94869.94;4953126;29;20294;-70
2022/03/03 07:52:04;;;;;;;26.40;16.20;;;;;;;7.70;39.12;94881.44;4954380;29;20208;-77
2022/03/03 07:54:32;;;;;;;30.45;16.83;;;;;;;8.32;38.29;94875.03;4953825;29;20200;-75
2022/03/03 07:57:00;;;;;;;30.15;17.00;;;;;;;8.02;37.90;94874.59;4953690;29;20291;-76
2022/03/03 07:59:34;;;;;;;23.30;15.48;;;;;;;8.03;37.60;94876.16;4953286;29;20589;-67
2022/03/03 08:02:05;;;;;;;27.63;15.82;;;;;;;7.46;38.81;94877.38;4953978;29;20587;-67
2022/03/03 08:04:33;;;;;;;21.55;12.88;;;;;;;7.84;38.04;94882.69;4954321;29;20212;-69
2022/03/03 08:07:09;;;;;;;37.30;16.35;;;;;;;7.55;38.78;94878.56;4953789;29;20882;-74
2022/03/03 08:09:38;;;;;;;29.88;15.57;;;;;;;7.73;38.01;94875.72;4953059;29;20200;-71
2022/03/03 08:12:07;;;;;;;26.60;16.10;;;;;;;7.17;38.91;94887.84;4963361;28;20239;-74
2022/03/03 08:14:35;;;;;;;25.60;13.50;;;;;;;6.85;39.35;94881.53;4976530;28;20270;-64
2022/03/03 08:17:06;;;;;;;26.00;16.55;;;;;;;7.98;38.05;94868.28;4975079;28;20202;-73
2022/03/03 08:19:35;;;;;;;23.65;13.52;;;;;;;7.40;38.40;94881.72;4971609;28;20196;-73
2022/03/03 08:22:03;;;;;;;27.85;15.27;;;;;;;7.37;38.33;94894.44;4971248;28;20211;-67
2022/03/03 08:24:30;;;;;;;29.92;15.80;;;;;;;6.99;39.25;94893.25;4966582;28;20196;-71
2022/03/03 08:26:58;;;;;;;27.90;15.38;;;;;;;7.27;38.70;94881.22;4970118;28;20266;-68
2022/03/03 08:29:25;;;;;;;27.92;15.52;;;;;;;7.43;38.38;94880.44;4970436;28;20332;-71
2022/03/03 08:31:57;;;;;;;25.27;15.68;;;;;;;7.67;38.17;94874.06;4970414;28;20574;-68
2022/03/03 08:34:35;;;;;;;25.33;15.18;;;;;;;7.98;37.58;94874.28;4970268;28;20637;-75
2022/03/03 08:37:07;;;;;;;23.67;13.70;;;;;;;7.51;38.54;94867.03;4973846;28;20680;-69
2022/03/03 08:39:38;;;;;;;26.40;15.57;;;;;;;8.06;37.17;94866.03;4964258;28;20200;-72
2022/03/03 08:42:12;;;;;;;24.42;15.35;;;;;;;8.68;36.48;94874.47;4964836;28;20203;-71
2022/03/03 08:44:51;;;;;;;27.08;16.55;;;;;;;8.48;37.15;94874.22;4969853;28;20223;-72
2022/03/03 08:47:21;;;;;;;24.48;15.43;;;;;;;8.28;37.80;94884.41;4971337;28;20233;-73
2022/03/03 08:49:57;;;;;;;25.88;13.20;;;;;;;8.39;37.16;94872.25;4970273;28;20349;-72
2022/03/03 08:52:44;;;;;;;39.22;15.63;;;;;;;8.27;37.08;94861.91;4971029;28;20203;-75
2022/03/03 08:55:13;;;;;;;28.23;15.63;;;;;;;8.80;36.22;94862.03;4970549;28;20183;-72
2022/03/03 08:57:40;;;;;;;26.92;16.95;;;;;;;9.55;39.31;94866.41;4973793;28;20683;-69
2022/03/03 09:00:12;;;;;;;21.85;13.00;;;;;;;8.78;37.57;94853.66;4973675;28;20196;-64
2022/03/03 09:02:46;;;;;;;22.40;13.50;;;;;;;8.88;36.58;94866.06;4978634;28;20250;-65
2022/03/03 09:05:13;;;;;;;23.60;15.00;;;;;;;8.80;37.14;94862.03;4981997;28;20794;-68
2022/03/03 09:07:40;;;;;;;25.42;14.95;;;;;;;9.38;35.82;94873.63;4982618;28;20571;-65
2022/03/03 09:10:08;;;;;;;27.88;16.05;;;;;;;8.24;37.27;94857.19;4968189;28;20200;-67
2022/03/03 09:12:35;;;;;;;49.05;32.17;;;;;;;8.80;38.38;94862.03;4969382;28;20598;-65
2022/03/03 09:15:03;;;;;;;28.05;18.45;;;;;;;8.60;36.21;94856.59;4966502;28;20246;-65
2022/03/03 09:17:32;;;;;;;20.38;12.48;;;;;;;7.30;38.06;94870.34;4960017;28;20214;-68
2022/03/03 09:20:02;;;;;;;23.58;14.80;;;;;;;8.17;37.22;94861.75;4959130;28;20246;-67
2022/03/03 09:22:30;;;;;;;29.33;15.02;;;;;;;8.64;36.54;94857.69;4961520;28;20192;-67
2022/03/03 09:24:56;;;;;;;22.85;13.48;;;;;;;7.98;37.04;94857.84;4963580;28;20235;-68
2022/03/03 09:27:24;;;;;;;27.00;15.65;;;;;;;8.17;37.61;94861.75;4957711;28;20226;-72
2022/03/03 09:29:51;;;;;;;24.35;13.63;;;;;;;8.08;37.47;94863.22;4962199;28;20200;-67
2022/03/03 09:32:19;;;;;;;23.08;14.40;;;;;;;8.00;37.54;94871.44;4962407;28;20654;-64
2022/03/03 09:34:46;;;;;;;22.15;11.77;;;;;;;7.13;38.82;94878.91;4957755;28;20695;-67
2022/03/03 09:37:15;;;;;;;41.00;14.45;;;;;;;8.51;36.99;94852.81;4966419;28;20214;-65
2022/03/03 09:39:44;;;;;;;27.65;15.10;;;;;;;8.74;36.25;94863.00;4965946;28;20203;-70
2022/03/03 09:42:11;;;;;;;26.48;16.48;;;;;;;8.69;36.79;94860.34;4962169;28;20586;-65
2022/03/03 09:44:38;;;;;;;37.72;22.33;;;;;;;9.56;35.86;94860.16;4966355;28;20195;-66
2022/03/03 09:47:05;;;;;;;22.65;14.18;;;;;;;9.74;34.70;94846.69;4968824;28;20292;-69
2022/03/03 09:49:32;;;;;;;25.17;11.05;;;;;;;9.38;34.29;94852.69;4974069;28;20195;-70
2022/03/03 09:52:00;;;;;;;18.50;10.00;;;;;;;7.53;36.71;94864.97;4975005;28;20261;-72
2022/03/03 09:54:28;;;;;;;23.15;11.48;;;;;;;7.89;37.37;94848.84;4973574;28;20202;-65
2022/03/03 09:56:55;;;;;;;19.38;10.68;;;;;;;7.89;37.07;94860.06;4973722;28;20309;-67
2022/03/03 09:59:22;;;;;;;21.10;12.95;;;;;;;8.64;35.62;94836.78;4969545;28;20207;-66
2022/03/03 10:01:49;;;;;;;17.15;11.05;;;;;;;8.47;36.42;94850.94;4970612;28;20702;-73
2022/03/03 10:04:22;;;;;;;23.55;12.90;;;;;;;8.76;35.88;94849.69;4972324;28;20195;-68
2022/03/03 10:06:51;;;;;;;22.05;12.95;;;;;;;9.52;35.26;94840.78;4954814;28;20198;-69
2022/03/03 10:09:18;;;;;;;29.08;15.68;;;;;;;9.89;34.15;94855.44;4972908;28;20285;-73
2022/03/03 10:11:48;;;;;;;25.65;14.18;;;;;;;9.17;35.57;94836.81;4973522;28;20191;-68
2022/03/03 10:14:36;;;;;;;23.10;14.27;;;;;;;9.20;35.83;94835.53;4972062;28;20704;-69
2022/03/03 10:17:05;;;;;;;20.90;13.05;;;;;;;9.26;34.43;94841.59;4971814;28;20566;-68
2022/03/03 10:19:54;;;;;;;22.92;13.45;;;;;;;9.38;34.99;94816.84;4972518;28;20229;-71
2022/03/03 10:22:57;;;;;;;45.05;27.27;;;;;;;9.87;35.17;94833.19;4972139;28;20195;-68
2022/03/03 10:25:32;;;;;;;88.82;59.08;;;;;;;10.02;34.24;94839.28;4968991;28;20251;-72
2022/03/03 10:28:17;;;;;;;24.00;13.32;;;;;;;9.67;34.79;94840.91;4972292;28;20215;-69
2022/03/03 10:30:57;;;;;;;23.98;13.25;;;;;;;9.89;34.09;94838.97;4969769;28;20214;-64
2022/03/03 10:33:30;;;;;;;16.52;10.98;;;;;;;9.76;33.95;94831.53;4972800;28;20345;-69
2022/03/03 10:36:08;;;;;;;20.35;13.13;;;;;;;9.38;34.94;94827.31;4971737;28;20670;-66
2022/03/03 10:38:49;;;;;;;19.95;9.00;;;;;;;8.64;35.13;94826.34;4971880;28;20202;-66
2022/03/03 10:41:35;;;;;;;22.20;11.98;;;;;;;8.98;34.69;94817.28;4971868;28;20690;-65
2022/03/03 10:44:10;;;;;;;22.15;13.50;;;;;;;9.17;35.21;94826.38;4971458;28;20654;-70
2022/03/03 10:46:41;;;;;;;19.45;10.35;;;;;;;8.37;35.18;94820.28;4972488;28;20191;-69
2022/03/03 10:49:22;;;;;;;20.77;12.75;;;;;;;8.97;35.43;94815.72;4971643;28;20235;-68
2022/03/03 10:51:50;;;;;;;23.70;13.02;;;;;;;9.05;34.98;94823.09;4971716;28;20282;-71
2022/03/03 10:54:18;;;;;;;20.88;13.63;;;;;;;10.20;34.27;94809.31;4970548;28;20889;-66
2022/03/03 10:57:05;;;;;;;18.10;11.25;;;;;;;9.40;34.42;94808.78;4958050;28;20207;-69
2022/03/03 10:59:33;;;;;;;22.08;13.20;;;;;;;9.56;34.41;94813.09;4971420;28;20191;-66
2022/03/03 11:02:01;;;;;;;24.95;15.27;;;;;;;10.02;34.02;94812.31;4971566;28;20576;-63
2022/03/03 11:04:28;;;;;;;20.55;13.07;;;;;;;9.23;34.49;94820.13;4970678;28;20188;-65
2022/03/03 11:06:55;;;;;;;21.70;12.00;;;;;;;8.68;35.45;94821.41;4970358;28;20243;-64
2022/03/03 11:09:22;;;;;;;23.95;12.98;;;;;;;8.54;35.98;94805.31;4962885;28;20322;-67
2022/03/03 11:11:49;;;;;;;18.75;12.57;;;;;;;9.04;34.64;94816.31;4963786;28;20203;-69
2022/03/03 11:14:17;;;;;;;19.67;12.30;;;;;;;9.02;35.12;94818.38;4961431;28;20206;-68
2022/03/03 11:17:02;;;;;;;19.27;12.35;;;;;;;8.43;35.26;94814.06;4960091;28;20265;-70
2022/03/03 11:19:29;;;;;;;17.85;11.88;;;;;;;8.79;35.11;94818.69;4961788;28;20282;-68
2022/03/03 11:21:56;;;;;;;18.90;11.93;;;;;;;9.02;34.53;94813.16;4948600;28;20237;-70
2022/03/03 11:24:32;;;;;;;24.58;16.15;;;;;;;9.21;35.61;94824.81;4972862;28;20203;-67
2022/03/03 11:27:00;;;;;;;52.92;33.47;;;;;;;9.78;35.98;94816.38;4972160;28;20214;-69
2022/03/03 11:29:27;;;;;;;22.80;13.40;;;;;;;9.41;34.91;94818.19;4971423;28;20231;-67
2022/03/03 11:32:07;;;;;;;24.40;14.43;;;;;;;9.12;34.90;94828.91;4972227;28;20183;-68
2022/03/03 11:34:34;;;;;;;28.80;16.20;;;;;;;9.77;34.41;94825.25;4971087;28;20205;-68